WAT206 KSEA-KBOI
Flight info
| Callsign | WAT206 |
|---|---|
| Flight time | 0h 59m |
| Altitude | 31000 |
| Route | SUMMA2 SUMMA J54 BKE DEVLE KYAAN4 |
| Aircraft | MD11/H-SDE1E2E3FGHIJ2J3J4J5M1RWXY/LB1D1 |
Departure
| Time | 2026-05-08 19:05 |
|---|---|
| Airport | Seattle–Tacoma International Airport (KSEA) |
Arrival
| Time | 2026-05-08 20:05 |
|---|---|
| Airport | Boise Air Terminal/Gowen Field (KBOI) |
| Time | Latitude | Longitude | Altitude | Speed | Heading |
|---|---|---|---|---|---|
| 2026-05-08 18:47 | 47.46253 | -122.30288 | 429 ft | 0 kts | 360° |
| 2026-05-08 18:58 | 47.46247 | -122.30288 | 426 ft | 2 kts | 358° |
| 2026-05-08 18:58 | 47.46228 | -122.30286 | 426 ft | 3 kts | 345° |
| 2026-05-08 18:59 | 47.46209 | -122.30277 | 424 ft | 3 kts | 330° |
| 2026-05-08 18:59 | 47.46193 | -122.30261 | 424 ft | 3 kts | 313° |
| 2026-05-08 18:59 | 47.46182 | -122.30240 | 424 ft | 3 kts | 292° |
| 2026-05-08 18:59 | 47.46177 | -122.30218 | 424 ft | 1 kts | 273° |
| 2026-05-08 19:00 | 47.46177 | -122.30214 | 440 ft | 0 kts | 272° |
| 2026-05-08 19:02 | 47.46177 | -122.30223 | 440 ft | 3 kts | 272° |
| 2026-05-08 19:02 | 47.46178 | -122.30271 | 432 ft | 7 kts | 272° |
| 2026-05-08 19:02 | 47.46179 | -122.30362 | 428 ft | 11 kts | 270° |
| 2026-05-08 19:03 | 47.46184 | -122.30483 | 426 ft | 9 kts | 283° |
| 2026-05-08 19:03 | 47.46187 | -122.30560 | 435 ft | 6 kts | 282° |
| 2026-05-08 19:03 | 47.46210 | -122.30599 | 435 ft | 5 kts | 324° |
| 2026-05-08 19:03 | 47.46259 | -122.30609 | 430 ft | 10 kts | 0° |
| 2026-05-08 19:04 | 47.46328 | -122.30611 | 431 ft | 8 kts | 354° |
| 2026-05-08 19:04 | 47.46364 | -122.30653 | 430 ft | 6 kts | 305° |
| 2026-05-08 19:04 | 47.46367 | -122.30715 | 422 ft | 7 kts | 247° |
| 2026-05-08 19:04 | 47.46311 | -122.30774 | 421 ft | 12 kts | 190° |
| 2026-05-08 19:05 | 47.46079 | -122.30781 | 425 ft | 70 kts | 178° |
| 2026-05-08 19:05 | 47.45330 | -122.30788 | 431 ft | 143 kts | 181° |
| 2026-05-08 19:05 | 47.44181 | -122.30808 | 698 ft | 174 kts | 182° |
| 2026-05-08 19:05 | 47.43005 | -122.30862 | 1752 ft | 163 kts | 185° |
| 2026-05-08 19:06 | 47.41875 | -122.31010 | 2726 ft | 164 kts | 188° |
| 2026-05-08 19:06 | 47.40737 | -122.31192 | 3637 ft | 166 kts | 189° |
| 2026-05-08 19:06 | 47.39475 | -122.31393 | 3958 ft | 203 kts | 189° |
| 2026-05-08 19:06 | 47.37944 | -122.31624 | 4128 ft | 238 kts | 188° |
| 2026-05-08 19:07 | 47.36248 | -122.31853 | 4834 ft | 246 kts | 187° |
| 2026-05-08 19:07 | 47.34531 | -122.32069 | 5828 ft | 250 kts | 188° |
| 2026-05-08 19:07 | 47.32781 | -122.32283 | 6701 ft | 259 kts | 188° |
| 2026-05-08 19:07 | 47.30965 | -122.32502 | 7554 ft | 264 kts | 188° |
| 2026-05-08 19:08 | 47.29120 | -122.32720 | 8419 ft | 270 kts | 188° |
| 2026-05-08 19:08 | 47.27219 | -122.32749 | 9245 ft | 277 kts | 175° |
| 2026-05-08 19:08 | 47.25322 | -122.32078 | 10083 ft | 286 kts | 167° |
| 2026-05-08 19:08 | 47.23336 | -122.31099 | 10321 ft | 316 kts | 164° |
| 2026-05-08 19:09 | 47.21167 | -122.29949 | 10448 ft | 346 kts | 163° |
| 2026-05-08 19:09 | 47.18850 | -122.28694 | 10992 ft | 359 kts | 163° |
| 2026-05-08 19:09 | 47.16493 | -122.27412 | 11815 ft | 363 kts | 163° |
| 2026-05-08 19:09 | 47.14112 | -122.26124 | 12664 ft | 367 kts | 164° |
| 2026-05-08 19:10 | 47.11702 | -122.24831 | 13489 ft | 371 kts | 164° |
| 2026-05-08 19:10 | 47.09256 | -122.23526 | 14254 ft | 375 kts | 164° |
| 2026-05-08 19:10 | 47.06788 | -122.22217 | 14909 ft | 379 kts | 165° |
| 2026-05-08 19:10 | 47.04294 | -122.20897 | 15570 ft | 382 kts | 165° |
| 2026-05-08 19:11 | 47.01775 | -122.19568 | 16218 ft | 386 kts | 165° |
| 2026-05-08 19:11 | 46.99227 | -122.18225 | 16864 ft | 390 kts | 165° |
| 2026-05-08 19:11 | 46.96664 | -122.16876 | 17506 ft | 394 kts | 165° |
| 2026-05-08 19:11 | 46.94076 | -122.15515 | 18129 ft | 398 kts | 165° |
| 2026-05-08 19:12 | 46.91456 | -122.14139 | 18694 ft | 402 kts | 165° |
| 2026-05-08 19:12 | 46.88815 | -122.12752 | 19241 ft | 404 kts | 164° |
| 2026-05-08 19:12 | 46.86200 | -122.11380 | 19793 ft | 404 kts | 165° |
| 2026-05-08 19:12 | 46.83549 | -122.09988 | 20380 ft | 405 kts | 165° |
| 2026-05-08 19:13 | 46.80895 | -122.08600 | 20947 ft | 406 kts | 165° |
| 2026-05-08 19:13 | 46.78231 | -122.07207 | 21519 ft | 408 kts | 165° |
| 2026-05-08 19:13 | 46.75554 | -122.05810 | 22116 ft | 409 kts | 165° |
| 2026-05-08 19:13 | 46.72868 | -122.04410 | 22692 ft | 411 kts | 165° |
| 2026-05-08 19:14 | 46.70172 | -122.03005 | 23292 ft | 412 kts | 165° |
| 2026-05-08 19:14 | 46.67458 | -122.01593 | 23874 ft | 415 kts | 165° |
| 2026-05-08 19:14 | 46.64734 | -122.00013 | 24089 ft | 427 kts | 159° |
| 2026-05-08 19:14 | 46.62160 | -121.97769 | 24599 ft | 437 kts | 147° |
| 2026-05-08 19:15 | 46.59977 | -121.94697 | 25079 ft | 450 kts | 134° |
| 2026-05-08 19:15 | 46.58187 | -121.90897 | 25534 ft | 459 kts | 126° |
| 2026-05-08 19:15 | 46.56628 | -121.86820 | 26011 ft | 463 kts | 123° |
| 2026-05-08 19:15 | 46.55144 | -121.82677 | 26673 ft | 463 kts | 123° |
| 2026-05-08 19:16 | 46.53637 | -121.78518 | 27130 ft | 466 kts | 123° |
| 2026-05-08 19:16 | 46.52087 | -121.74368 | 27596 ft | 468 kts | 124° |
| 2026-05-08 19:16 | 46.50504 | -121.70251 | 28034 ft | 471 kts | 125° |
| 2026-05-08 19:16 | 46.48879 | -121.66104 | 28462 ft | 474 kts | 125° |
| 2026-05-08 19:17 | 46.47233 | -121.61957 | 28867 ft | 477 kts | 126° |
| 2026-05-08 19:17 | 46.45562 | -121.57789 | 29299 ft | 480 kts | 126° |
| 2026-05-08 19:17 | 46.43875 | -121.53592 | 29732 ft | 483 kts | 126° |
| 2026-05-08 19:17 | 46.42177 | -121.49368 | 30142 ft | 486 kts | 126° |
| 2026-05-08 19:18 | 46.40474 | -121.45129 | 30510 ft | 488 kts | 126° |
| 2026-05-08 19:18 | 46.38760 | -121.40861 | 30874 ft | 489 kts | 126° |
| 2026-05-08 19:18 | 46.37050 | -121.36606 | 31022 ft | 490 kts | 126° |
| 2026-05-08 19:19 | 46.33609 | -121.28062 | 31083 ft | 492 kts | 126° |
| 2026-05-08 19:19 | 46.30154 | -121.19511 | 31071 ft | 493 kts | 126° |
| 2026-05-08 19:20 | 46.26712 | -121.11017 | 31071 ft | 492 kts | 126° |
| 2026-05-08 19:20 | 46.23235 | -121.02470 | 31067 ft | 493 kts | 126° |
| 2026-05-08 19:21 | 46.19752 | -120.93931 | 31048 ft | 492 kts | 126° |
| 2026-05-08 19:21 | 46.16284 | -120.85451 | 31056 ft | 490 kts | 127° |
| 2026-05-08 19:22 | 46.12813 | -120.76997 | 31058 ft | 490 kts | 127° |
| 2026-05-08 19:22 | 46.09330 | -120.68542 | 31056 ft | 491 kts | 127° |
| 2026-05-08 19:23 | 46.05860 | -120.60145 | 31047 ft | 491 kts | 127° |
| 2026-05-08 19:23 | 46.02341 | -120.51744 | 31047 ft | 490 kts | 127° |
| 2026-05-08 19:24 | 45.98820 | -120.43337 | 31055 ft | 490 kts | 127° |
| 2026-05-08 19:24 | 45.95899 | -120.36343 | 31059 ft | 492 kts | 127° |
| 2026-05-08 19:25 | 45.92371 | -120.27899 | 31054 ft | 492 kts | 127° |
| 2026-05-08 19:25 | 45.88837 | -120.19463 | 31041 ft | 493 kts | 127° |
| 2026-05-08 19:26 | 45.85296 | -120.11037 | 31049 ft | 493 kts | 127° |
| 2026-05-08 19:26 | 45.81745 | -120.02617 | 31039 ft | 494 kts | 127° |
| 2026-05-08 19:27 | 45.78183 | -119.94195 | 31059 ft | 494 kts | 127° |
| 2026-05-08 19:27 | 45.74616 | -119.85785 | 31047 ft | 494 kts | 127° |
| 2026-05-08 19:28 | 45.71055 | -119.77440 | 31023 ft | 494 kts | 127° |
| 2026-05-08 19:28 | 45.67449 | -119.69038 | 31057 ft | 496 kts | 127° |
| 2026-05-08 19:29 | 45.63848 | -119.60617 | 31059 ft | 497 kts | 127° |
| 2026-05-08 19:29 | 45.60242 | -119.52184 | 31061 ft | 497 kts | 127° |
| 2026-05-08 19:30 | 45.56633 | -119.43769 | 31054 ft | 497 kts | 127° |
| 2026-05-08 19:30 | 45.53004 | -119.35336 | 31070 ft | 499 kts | 127° |
| 2026-05-08 19:31 | 45.49391 | -119.26964 | 31058 ft | 499 kts | 127° |
| 2026-05-08 19:31 | 45.45754 | -119.18560 | 31052 ft | 499 kts | 127° |
| 2026-05-08 19:32 | 45.42094 | -119.10135 | 31057 ft | 502 kts | 126° |
| 2026-05-08 19:32 | 45.38410 | -119.01676 | 31068 ft | 503 kts | 126° |
| 2026-05-08 19:33 | 45.34727 | -118.93242 | 31077 ft | 502 kts | 126° |
| 2026-05-08 19:33 | 45.31033 | -118.84809 | 31088 ft | 502 kts | 126° |
| 2026-05-08 19:34 | 45.27311 | -118.76382 | 31095 ft | 505 kts | 127° |
| 2026-05-08 19:34 | 45.23556 | -118.67953 | 31099 ft | 505 kts | 127° |
| 2026-05-08 19:35 | 45.19815 | -118.59522 | 31100 ft | 505 kts | 127° |
| 2026-05-08 19:35 | 45.16073 | -118.51084 | 31118 ft | 505 kts | 127° |
| 2026-05-08 19:36 | 45.12334 | -118.42671 | 31125 ft | 504 kts | 127° |
| 2026-05-08 19:36 | 45.08588 | -118.34273 | 31118 ft | 505 kts | 127° |
| 2026-05-08 19:37 | 45.04855 | -118.25929 | 31118 ft | 506 kts | 127° |
| 2026-05-08 19:37 | 45.01080 | -118.17517 | 31104 ft | 507 kts | 127° |
| 2026-05-08 19:38 | 44.97297 | -118.09110 | 31113 ft | 506 kts | 127° |
| 2026-05-08 19:38 | 44.93514 | -118.00726 | 31113 ft | 506 kts | 127° |
| 2026-05-08 19:39 | 44.89723 | -117.92351 | 31095 ft | 506 kts | 127° |
| 2026-05-08 19:39 | 44.85866 | -117.84038 | 31114 ft | 505 kts | 131° |
| 2026-05-08 19:40 | 44.80942 | -117.77221 | 31121 ft | 491 kts | 150° |
| 2026-05-08 19:40 | 44.75139 | -117.72245 | 31117 ft | 487 kts | 155° |
| 2026-05-08 19:41 | 44.69274 | -117.67417 | 31103 ft | 490 kts | 153° |
| 2026-05-08 19:41 | 44.63512 | -117.62373 | 31091 ft | 491 kts | 152° |
| 2026-05-08 19:42 | 44.57760 | -117.57201 | 31077 ft | 491 kts | 152° |
| 2026-05-08 19:42 | 44.52031 | -117.52040 | 30920 ft | 485 kts | 152° |
| 2026-05-08 19:42 | 44.49198 | -117.49497 | 30713 ft | 482 kts | 152° |
| 2026-05-08 19:43 | 44.46370 | -117.46966 | 30379 ft | 481 kts | 152° |
| 2026-05-08 19:43 | 44.43562 | -117.44458 | 29747 ft | 479 kts | 152° |
| 2026-05-08 19:43 | 44.40766 | -117.41963 | 29011 ft | 474 kts | 152° |
| 2026-05-08 19:43 | 44.37996 | -117.39494 | 28309 ft | 470 kts | 152° |
| 2026-05-08 19:44 | 44.35245 | -117.37045 | 27666 ft | 467 kts | 152° |
| 2026-05-08 19:44 | 44.32513 | -117.34616 | 27025 ft | 464 kts | 152° |
| 2026-05-08 19:44 | 44.29796 | -117.32205 | 26384 ft | 460 kts | 152° |
| 2026-05-08 19:44 | 44.27106 | -117.29817 | 25757 ft | 456 kts | 152° |
| 2026-05-08 19:45 | 44.24471 | -117.27483 | 25134 ft | 453 kts | 152° |
| 2026-05-08 19:45 | 44.21825 | -117.25126 | 24505 ft | 450 kts | 150° |
| 2026-05-08 19:45 | 44.19321 | -117.22501 | 23878 ft | 450 kts | 143° |
| 2026-05-08 19:45 | 44.16982 | -117.19614 | 23118 ft | 448 kts | 140° |
| 2026-05-08 19:46 | 44.14733 | -117.16627 | 22436 ft | 444 kts | 139° |
| 2026-05-08 19:46 | 44.12536 | -117.13646 | 21738 ft | 439 kts | 139° |
| 2026-05-08 19:46 | 44.08206 | -117.07810 | 20435 ft | 430 kts | 139° |
| 2026-05-08 19:47 | 44.06055 | -117.04953 | 19773 ft | 425 kts | 139° |
| 2026-05-08 19:47 | 44.03922 | -117.02136 | 19142 ft | 421 kts | 139° |
| 2026-05-08 19:47 | 44.01803 | -116.99351 | 18523 ft | 417 kts | 139° |
| 2026-05-08 19:47 | 43.99696 | -116.96587 | 17769 ft | 413 kts | 139° |
| 2026-05-08 19:48 | 43.97650 | -116.93886 | 17097 ft | 409 kts | 137° |
| 2026-05-08 19:48 | 43.95793 | -116.90907 | 16466 ft | 408 kts | 129° |
| 2026-05-08 19:48 | 43.94142 | -116.87718 | 15842 ft | 405 kts | 126° |
| 2026-05-08 19:48 | 43.92586 | -116.84474 | 15222 ft | 401 kts | 125° |
| 2026-05-08 19:49 | 43.91068 | -116.81243 | 14632 ft | 397 kts | 124° |
| 2026-05-08 19:49 | 43.89565 | -116.78054 | 14225 ft | 393 kts | 125° |
| 2026-05-08 19:49 | 43.88070 | -116.74913 | 14029 ft | 384 kts | 125° |
| 2026-05-08 19:49 | 43.86621 | -116.71889 | 13912 ft | 368 kts | 125° |
| 2026-05-08 19:50 | 43.85227 | -116.68997 | 13766 ft | 353 kts | 126° |
| 2026-05-08 19:50 | 43.83884 | -116.66223 | 13522 ft | 342 kts | 126° |
| 2026-05-08 19:50 | 43.82572 | -116.63549 | 13041 ft | 340 kts | 126° |
| 2026-05-08 19:50 | 43.81210 | -116.60803 | 12399 ft | 344 kts | 126° |
| 2026-05-08 19:51 | 43.79852 | -116.58074 | 11802 ft | 345 kts | 126° |
| 2026-05-08 19:51 | 43.78504 | -116.55364 | 11203 ft | 347 kts | 126° |
| 2026-05-08 19:51 | 43.77134 | -116.52608 | 10595 ft | 349 kts | 125° |
| 2026-05-08 19:51 | 43.76051 | -116.49692 | 10458 ft | 332 kts | 113° |
| 2026-05-08 19:52 | 43.75044 | -116.46899 | 10333 ft | 319 kts | 120° |
| 2026-05-08 19:52 | 43.73967 | -116.44343 | 10154 ft | 293 kts | 121° |
| 2026-05-08 19:52 | 43.72995 | -116.41972 | 9644 ft | 275 kts | 117° |
| 2026-05-08 19:52 | 43.72190 | -116.39638 | 9259 ft | 264 kts | 115° |
| 2026-05-08 19:53 | 43.71429 | -116.37350 | 8745 ft | 262 kts | 115° |
| 2026-05-08 19:53 | 43.70677 | -116.35071 | 8326 ft | 257 kts | 115° |
| 2026-05-08 19:53 | 43.69935 | -116.32815 | 8211 ft | 261 kts | 115° |
| 2026-05-08 19:53 | 43.69188 | -116.30531 | 8085 ft | 261 kts | 114° |
| 2026-05-08 19:54 | 43.68442 | -116.28257 | 7959 ft | 259 kts | 115° |
| 2026-05-08 19:54 | 43.67699 | -116.25987 | 7839 ft | 260 kts | 114° |
| 2026-05-08 19:54 | 43.66957 | -116.23718 | 7681 ft | 260 kts | 115° |
| 2026-05-08 19:54 | 43.66213 | -116.21439 | 7572 ft | 261 kts | 115° |
| 2026-05-08 19:55 | 43.65468 | -116.19151 | 7430 ft | 260 kts | 114° |
| 2026-05-08 19:55 | 43.64730 | -116.16888 | 7327 ft | 256 kts | 114° |
| 2026-05-08 19:55 | 43.64009 | -116.14683 | 7213 ft | 254 kts | 114° |
| 2026-05-08 19:55 | 43.63281 | -116.12452 | 7073 ft | 256 kts | 114° |
| 2026-05-08 19:56 | 43.62554 | -116.10212 | 6971 ft | 255 kts | 114° |
| 2026-05-08 19:56 | 43.61835 | -116.07993 | 6930 ft | 251 kts | 114° |
| 2026-05-08 19:56 | 43.61125 | -116.05797 | 6953 ft | 249 kts | 115° |
| 2026-05-08 19:56 | 43.60426 | -116.03619 | 6898 ft | 249 kts | 114° |
| 2026-05-08 19:57 | 43.59726 | -116.01424 | 6920 ft | 251 kts | 114° |
| 2026-05-08 19:57 | 43.59017 | -115.99214 | 6966 ft | 252 kts | 114° |
| 2026-05-08 19:57 | 43.58302 | -115.97012 | 6957 ft | 251 kts | 114° |
| 2026-05-08 19:57 | 43.57355 | -115.95041 | 6947 ft | 240 kts | 137° |
| 2026-05-08 19:58 | 43.56179 | -115.93594 | 6918 ft | 218 kts | 143° |
| 2026-05-08 19:58 | 43.55031 | -115.92241 | 6957 ft | 217 kts | 142° |
| 2026-05-08 19:58 | 43.53891 | -115.90898 | 6942 ft | 215 kts | 142° |
| 2026-05-08 19:58 | 43.52603 | -115.89925 | 6945 ft | 209 kts | 167° |
| 2026-05-08 19:59 | 43.51184 | -115.89711 | 6799 ft | 203 kts | 194° |
| 2026-05-08 19:59 | 43.49973 | -115.90539 | 6612 ft | 192 kts | 231° |
| 2026-05-08 19:59 | 43.49400 | -115.92126 | 6310 ft | 186 kts | 265° |
| 2026-05-08 19:59 | 43.49404 | -115.93878 | 5971 ft | 184 kts | 273° |
| 2026-05-08 20:00 | 43.49420 | -115.95632 | 5679 ft | 180 kts | 271° |
| 2026-05-08 20:00 | 43.49417 | -115.97362 | 5775 ft | 185 kts | 270° |
| 2026-05-08 20:00 | 43.49414 | -115.99117 | 5758 ft | 183 kts | 271° |
| 2026-05-08 20:00 | 43.49418 | -116.00879 | 5739 ft | 184 kts | 274° |
| 2026-05-08 20:01 | 43.49718 | -116.02580 | 5755 ft | 186 kts | 292° |
| 2026-05-08 20:01 | 43.50233 | -116.04229 | 5411 ft | 187 kts | 294° |
| 2026-05-08 20:01 | 43.50757 | -116.05831 | 5169 ft | 181 kts | 293° |
| 2026-05-08 20:01 | 43.51260 | -116.07352 | 4862 ft | 169 kts | 294° |
| 2026-05-08 20:02 | 43.51740 | -116.08794 | 4619 ft | 163 kts | 295° |
| 2026-05-08 20:02 | 43.52210 | -116.10196 | 4274 ft | 159 kts | 296° |
| 2026-05-08 20:02 | 43.52674 | -116.11570 | 3932 ft | 159 kts | 296° |
| 2026-05-08 20:02 | 43.53138 | -116.12943 | 3704 ft | 159 kts | 294° |
| 2026-05-08 20:03 | 43.53613 | -116.14346 | 3537 ft | 164 kts | 292° |
| 2026-05-08 20:03 | 43.54097 | -116.15768 | 3389 ft | 164 kts | 292° |
| 2026-05-08 20:03 | 43.54578 | -116.17198 | 3271 ft | 165 kts | 293° |
| 2026-05-08 20:03 | 43.55062 | -116.18633 | 3181 ft | 165 kts | 296° |
| 2026-05-08 20:04 | 43.55558 | -116.20029 | 3044 ft | 161 kts | 294° |
| 2026-05-08 20:04 | 43.56025 | -116.21407 | 2892 ft | 153 kts | 294° |
| 2026-05-08 20:04 | 43.56348 | -116.22345 | 2888 ft | 76 kts | 294° |
| 2026-05-08 20:04 | 43.56548 | -116.22928 | 2891 ft | 61 kts | 295° |
| 2026-05-08 20:05 | 43.56656 | -116.23189 | 2889 ft | 7 kts | 342° |
| 2026-05-08 20:05 | 43.56676 | -116.23180 | 2889 ft | 2 kts | 26° |
| 2026-05-08 20:05 | 43.56690 | -116.23170 | 2889 ft | 3 kts | 28° |
| 2026-05-08 20:05 | 43.56720 | -116.23148 | 2888 ft | 6 kts | 28° |
| 2026-05-08 20:06 | 43.56753 | -116.23124 | 2888 ft | 7 kts | 27° |
| 2026-05-08 20:06 | 43.56814 | -116.23083 | 2886 ft | 11 kts | 26° |
| 2026-05-08 20:06 | 43.56878 | -116.23042 | 2887 ft | 8 kts | 25° |
| 2026-05-08 20:06 | 43.56898 | -116.23004 | 2888 ft | 6 kts | 82° |
| 2026-05-08 20:07 | 43.56886 | -116.22943 | 2888 ft | 7 kts | 110° |
| 2026-05-08 20:07 | 43.56862 | -116.22874 | 2888 ft | 10 kts | 115° |
| 2026-05-08 20:07 | 43.56825 | -116.22762 | 2888 ft | 16 kts | 114° |
| 2026-05-08 20:07 | 43.56773 | -116.22610 | 2888 ft | 18 kts | 115° |
| 2026-05-08 20:08 | 43.56718 | -116.22448 | 2889 ft | 18 kts | 115° |
| 2026-05-08 20:08 | 43.56668 | -116.22301 | 2888 ft | 16 kts | 117° |
| 2026-05-08 20:08 | 43.56617 | -116.22155 | 2888 ft | 17 kts | 115° |
| 2026-05-08 20:08 | 43.56571 | -116.22020 | 2888 ft | 14 kts | 115° |
| 2026-05-08 20:09 | 43.56531 | -116.21905 | 2888 ft | 12 kts | 116° |
| 2026-05-08 20:09 | 43.56499 | -116.21813 | 2888 ft | 9 kts | 112° |
| 2026-05-08 20:09 | 43.56521 | -116.21743 | 2888 ft | 10 kts | 42° |
| 2026-05-08 20:09 | 43.56574 | -116.21737 | 2888 ft | 7 kts | 356° |
| 2026-05-08 20:10 | 43.56610 | -116.21742 | 2889 ft | 4 kts | 355° |
| 2026-05-08 20:10 | 43.56638 | -116.21745 | 2889 ft | 6 kts | 355° |
| 2026-05-08 20:10 | 43.56686 | -116.21751 | 2889 ft | 8 kts | 354° |
| 2026-05-08 20:10 | 43.56749 | -116.21748 | 2889 ft | 9 kts | 21° |
| 2026-05-08 20:11 | 43.56764 | -116.21720 | 2889 ft | 3 kts | 72° |
| 2026-05-08 20:11 | 43.56763 | -116.21691 | 2889 ft | 3 kts | 104° |
| 2026-05-08 20:11 | 43.56748 | -116.21669 | 2889 ft | 3 kts | 147° |
| 2026-05-08 20:11 | 43.56727 | -116.21668 | 2889 ft | 4 kts | 185° |
| 2026-05-08 20:12 | 43.56698 | -116.21680 | 2889 ft | 5 kts | 200° |
| 2026-05-08 20:12 | 43.56686 | -116.21686 | 2889 ft | 0 kts | 201° |